createdAt,value
2022-11-20T00:01:54.247Z,95297.88
2022-11-20T00:06:55.684Z,95302.16
2022-11-20T00:11:57.088Z,95296.56
2022-11-20T00:16:58.475Z,95296.69
2022-11-20T00:21:59.907Z,95303.72
2022-11-20T00:27:01.343Z,95309.06
2022-11-20T00:32:02.839Z,95300.97
2022-11-20T00:37:04.294Z,95306.44
2022-11-20T00:42:05.710Z,95310.88
2022-11-20T00:47:07.140Z,95312.19
2022-11-20T00:52:08.603Z,95318.00
2022-11-20T00:57:10.015Z,95321.56
2022-11-20T01:02:11.478Z,95320.03
2022-11-20T01:07:12.939Z,95327.13
2022-11-20T01:12:14.350Z,95320.59
2022-11-20T01:17:15.863Z,95323.81
2022-11-20T01:22:17.561Z,95321.91
2022-11-20T01:27:18.986Z,95321.91
2022-11-20T01:32:20.388Z,95324.66
2022-11-20T01:37:21.836Z,95316.38
2022-11-20T01:42:23.305Z,95313.75
2022-11-20T01:47:36.026Z,95328.88
2022-11-20T01:52:41.965Z,95336.50
2022-11-20T01:57:46.456Z,95330.03
2022-11-20T02:03:04.586Z,95334.22
2022-11-20T02:08:07.405Z,95323.03
2022-11-20T02:13:09.367Z,95330.63
2022-11-20T02:18:14.104Z,95327.91
2022-11-20T02:23:15.487Z,95336.00
2022-11-20T02:28:18.798Z,95341.03
2022-11-20T02:33:20.277Z,95336.53
2022-11-20T02:38:21.762Z,95346.41
2022-11-20T02:43:23.964Z,95349.75
2022-11-20T02:48:25.474Z,95347.72
2022-11-20T02:53:27.124Z,95342.38
2022-11-20T02:58:28.522Z,95348.31
2022-11-20T03:03:29.967Z,95339.59
2022-11-20T03:08:31.432Z,95338.53
2022-11-20T03:13:33.380Z,95338.66
2022-11-20T03:18:34.963Z,95336.63
2022-11-20T03:23:37.199Z,95343.03
2022-11-20T03:28:39.402Z,95341.97
2022-11-20T03:33:42.428Z,95336.97
2022-11-20T03:38:44.005Z,95339.59
2022-11-20T03:43:54.236Z,95346.31
2022-11-20T03:48:56.233Z,95352.63
2022-11-20T03:54:01.661Z,95349.28
2022-11-20T03:59:03.276Z,95358.69
2022-11-20T04:04:05.067Z,95358.56
2022-11-20T04:09:07.347Z,95357.16
2022-11-20T04:14:14.624Z,95357.97
2022-11-20T04:19:17.210Z,95356.78
2022-11-20T04:24:18.638Z,95348.34
2022-11-20T04:29:20.334Z,95345.97
2022-11-20T04:34:21.893Z,95343.00
2022-11-20T04:39:23.681Z,95348.47
2022-11-20T04:44:25.353Z,95344.06
2022-11-20T04:49:26.819Z,95351.94
2022-11-20T04:54:28.301Z,95347.75
2022-11-20T04:59:29.776Z,95350.50
2022-11-20T05:04:31.448Z,95353.72
2022-11-20T05:09:32.871Z,95357.28
2022-11-20T05:14:34.609Z,95351.31
2022-11-20T05:19:36.099Z,95346.22
2022-11-20T05:24:37.538Z,95358.03
2022-11-20T05:29:39.002Z,95366.94
2022-11-20T05:34:40.403Z,95361.00
2022-11-20T05:39:41.802Z,95362.88
2022-11-20T05:44:43.187Z,95356.22
2022-11-20T05:49:44.686Z,95361.00
2022-11-20T05:54:46.162Z,95373.38
2022-11-20T05:59:47.644Z,95371.22
2022-11-20T06:04:49.068Z,95378.44
2022-11-20T06:09:50.505Z,95375.69
2022-11-20T06:14:51.966Z,95379.59
2022-11-20T06:19:53.442Z,95378.25
2022-11-20T06:24:54.842Z,95378.34
2022-11-20T06:29:56.298Z,95377.97
2022-11-20T06:34:57.766Z,95378.19
2022-11-20T06:39:59.193Z,95392.69
2022-11-20T06:45:00.599Z,95391.78
2022-11-20T06:50:02.186Z,95398.44
2022-11-20T06:55:03.933Z,95396.56
2022-11-20T07:00:05.939Z,95407.41
2022-11-20T07:05:07.486Z,95400.06
2022-11-20T07:10:09.559Z,95398.31
2022-11-20T07:15:11.066Z,95411.78
2022-11-20T07:20:13.258Z,95422.13
2022-11-20T07:25:14.884Z,95430.56
2022-11-20T07:30:17.537Z,95418.47
2022-11-20T07:35:19.252Z,95425.25
2022-11-20T07:40:20.744Z,95423.25
2022-11-20T07:45:24.614Z,95425.19
2022-11-20T07:50:26.127Z,95419.34
2022-11-20T07:55:27.605Z,95421.03
2022-11-20T08:00:29.163Z,95424.72
2022-11-20T08:05:30.717Z,95420.53
2022-11-20T08:10:32.164Z,95433.16
2022-11-20T08:15:34.542Z,95417.13
2022-11-20T08:20:36.070Z,95432.44
2022-11-20T08:25:38.683Z,95432.09
2022-11-20T08:30:42.888Z,95428.31
2022-11-20T08:35:44.282Z,95427.63
2022-11-20T08:40:45.686Z,95436.63
2022-11-20T08:45:47.096Z,95435.78
2022-11-20T08:50:48.503Z,95433.72
2022-11-20T08:55:49.913Z,95434.94
2022-11-20T09:00:51.648Z,95441.84
2022-11-20T09:05:57.973Z,95443.84
2022-11-20T09:11:00.144Z,95440.56
2022-11-20T09:16:05.053Z,95440.28
2022-11-20T09:21:09.691Z,95448.09
2022-11-20T09:26:13.286Z,95440.34
2022-11-20T09:31:24.536Z,95439.69
2022-11-20T09:36:25.953Z,95435.50
2022-11-20T09:41:51.986Z,95436.81
2022-11-20T09:47:06.810Z,95441.25
2022-11-20T09:52:28.156Z,95442.44
2022-11-20T09:57:38.949Z,95442.00
2022-11-20T10:02:48.342Z,95428.97
2022-11-20T10:08:13.868Z,95425.91
2022-11-20T10:19:14.162Z,95424.63
2022-11-20T10:29:50.997Z,95417.06
2022-11-20T10:35:02.516Z,95431.44
2022-11-20T10:40:18.579Z,95430.78
2022-11-20T10:45:37.603Z,95427.00
2022-11-20T10:50:50.623Z,95422.59
2022-11-20T10:56:01.330Z,95429.50
2022-11-20T11:01:21.042Z,95417.53
2022-11-20T11:06:26.249Z,95417.28
2022-11-20T11:11:31.038Z,95414.06
2022-11-20T11:16:32.520Z,95412.94
2022-11-20T11:21:34.115Z,95415.69
2022-11-20T11:26:35.515Z,95404.09
2022-11-20T11:31:36.979Z,95403.00
2022-11-20T11:36:38.988Z,95394.91
2022-11-20T11:41:41.377Z,95377.94
2022-11-20T11:47:01.427Z,95369.94
2022-11-20T11:52:08.743Z,95374.44
2022-11-20T11:57:20.236Z,95367.66
2022-11-20T12:02:41.347Z,95356.41
2022-11-20T12:07:47.576Z,95347.97
2022-11-20T12:12:55.330Z,95346.44
2022-11-20T12:17:57.231Z,95350.69
2022-11-20T12:23:18.646Z,95329.91
2022-11-20T12:28:38.427Z,95327.00
2022-11-20T12:34:10.215Z,95322.09
2022-11-20T12:39:33.563Z,95320.91
2022-11-20T12:45:08.678Z,95307.94
2022-11-20T12:51:08.473Z,95314.72
2022-11-20T12:56:33.689Z,95303.25
2022-11-20T13:01:41.708Z,95286.69
2022-11-20T13:06:44.880Z,95297.88
2022-11-20T13:11:57.054Z,95284.28
2022-11-20T13:17:13.753Z,95277.59
2022-11-20T13:22:28.621Z,95266.25
2022-11-20T13:27:30.119Z,95260.88
2022-11-20T13:32:31.588Z,95262.88
2022-11-20T13:37:35.995Z,95252.09
2022-11-20T13:42:40.858Z,95251.53
2022-11-20T13:47:49.556Z,95252.03
2022-11-20T13:53:08.689Z,95244.66
2022-11-20T13:58:28.767Z,95250.53
2022-11-20T14:03:59.080Z,95239.63
2022-11-20T14:08:55.527Z,95234.09
2022-11-20T14:14:02.737Z,95229.13
2022-11-20T14:19:22.564Z,95221.50
2022-11-20T14:24:24.913Z,95226.25
2022-11-20T14:29:38.311Z,95217.13
2022-11-20T14:34:42.595Z,95210.72
2022-11-20T14:39:50.382Z,95211.56
2022-11-20T14:44:55.755Z,95207.97
2022-11-20T14:49:59.313Z,95207.00
2022-11-20T14:55:00.767Z,95208.53
2022-11-20T15:00:20.982Z,95219.31
2022-11-20T15:05:44.154Z,95213.63
2022-11-20T15:10:49.355Z,95212.50
2022-11-20T15:15:52.988Z,95203.25
2022-11-20T15:20:57.088Z,95193.53
2022-11-20T15:25:58.698Z,95185.13
2022-11-20T15:31:00.843Z,95184.41
2022-11-20T15:36:02.278Z,95183.53
2022-11-20T15:41:03.896Z,95175.44
2022-11-20T15:46:10.067Z,95179.25
2022-11-20T15:51:11.453Z,95163.03
2022-11-20T15:56:14.597Z,95155.69
2022-11-20T16:01:18.495Z,95138.53
2022-11-20T16:06:20.096Z,95139.53
2022-11-20T16:11:21.520Z,95137.22
2022-11-20T16:16:30.700Z,95152.09
2022-11-20T16:21:32.685Z,95147.00
2022-11-20T16:26:34.743Z,95151.28
2022-11-20T16:31:36.443Z,95139.94
2022-11-20T16:36:41.179Z,95143.53
2022-11-20T16:41:42.647Z,95144.75
2022-11-20T16:46:44.106Z,95142.22
2022-11-20T16:51:45.604Z,95141.25
2022-11-20T16:56:47.080Z,95143.53
2022-11-20T17:01:48.778Z,95148.66
2022-11-20T17:06:50.293Z,95135.75
2022-11-20T17:11:51.718Z,95136.81
2022-11-20T17:16:53.168Z,95118.16
2022-11-20T17:21:55.033Z,95123.34
2022-11-20T17:26:56.497Z,95118.94
2022-11-20T17:31:57.897Z,95127.75
2022-11-20T17:36:59.284Z,95116.72
2022-11-20T17:42:00.741Z,95119.22
2022-11-20T17:47:02.351Z,95116.19
2022-11-20T17:52:03.961Z,95115.47
2022-11-20T17:57:06.565Z,95124.94
2022-11-20T18:02:09.639Z,95129.53
2022-11-20T18:07:11.163Z,95110.81
2022-11-20T18:12:12.605Z,95113.22
2022-11-20T18:17:15.563Z,95113.03
2022-11-20T18:22:19.018Z,95108.41
2022-11-20T18:27:21.026Z,95114.03
2022-11-20T18:32:22.583Z,95115.94
2022-11-20T18:37:24.111Z,95112.94
2022-11-20T18:42:25.663Z,95104.97
2022-11-20T18:47:29.643Z,95102.34
2022-11-20T18:52:34.220Z,95098.03
2022-11-20T18:57:35.902Z,95094.56
2022-11-20T19:02:43.021Z,95098.97
2022-11-20T19:07:44.984Z,95089.06
2022-11-20T19:12:46.459Z,95089.25
2022-11-20T19:17:47.932Z,95096.03
2022-11-20T19:22:52.299Z,95089.00
2022-11-20T19:27:53.791Z,95093.09
2022-11-20T19:32:55.264Z,95100.25
2022-11-20T19:38:00.126Z,95115.91
2022-11-20T19:43:04.082Z,95141.44
2022-11-20T19:48:08.294Z,95161.38
2022-11-20T19:53:10.140Z,95149.34
2022-11-20T19:58:11.636Z,95160.56
2022-11-20T20:03:13.165Z,95170.56
2022-11-20T20:08:17.122Z,95167.22
2022-11-20T20:13:18.748Z,95177.91
2022-11-20T20:18:20.215Z,95178.63
2022-11-20T20:23:21.719Z,95167.22
2022-11-20T20:28:23.123Z,95181.38
2022-11-20T20:33:24.624Z,95176.03
2022-11-20T20:38:26.029Z,95191.72
2022-11-20T20:43:27.997Z,95184.81
2022-11-20T20:48:32.273Z,95189.22
2022-11-20T20:53:33.728Z,95204.56
2022-11-20T20:58:35.637Z,95203.34
2022-11-20T21:03:37.920Z,95215.72
2022-11-20T21:08:41.105Z,95210.50
2022-11-20T21:13:45.210Z,95217.63
2022-11-20T21:18:46.853Z,95238.06
2022-11-20T21:23:48.361Z,95233.91
2022-11-20T21:28:50.015Z,95230.69
2022-11-20T21:33:52.933Z,95237.47
2022-11-20T21:38:55.360Z,95252.13
2022-11-20T21:44:29.564Z,95257.59
2022-11-20T21:49:20.161Z,95270.31
2022-11-20T21:54:21.765Z,95280.19
2022-11-20T21:59:23.676Z,95274.41
2022-11-20T22:04:25.413Z,95258.28
2022-11-20T22:09:26.991Z,95251.63
2022-11-20T22:14:28.716Z,95260.22
2022-11-20T22:19:30.292Z,95265.72
2022-11-20T22:24:31.772Z,95265.72
2022-11-20T22:29:33.144Z,95267.28
2022-11-20T22:34:34.547Z,95271.59
2022-11-20T22:39:36.791Z,95264.34
2022-11-20T22:44:38.199Z,95260.34
2022-11-20T22:49:39.676Z,95257.53
2022-11-20T22:54:41.146Z,95261.94
2022-11-20T22:59:42.605Z,95251.69
2022-11-20T23:04:44.387Z,95232.03
2022-11-20T23:09:45.856Z,95242.63
2022-11-20T23:14:47.268Z,95246.94
2022-11-20T23:19:48.655Z,95241.94
2022-11-20T23:24:50.094Z,95246.09
2022-11-20T23:29:51.616Z,95239.09
2022-11-20T23:34:53.048Z,95229.69
2022-11-20T23:39:54.439Z,95234.78
2022-11-20T23:44:55.832Z,95226.81
2022-11-20T23:49:57.269Z,95229.44
2022-11-20T23:54:58.730Z,95213.88
